createdAt,value
2018-01-14T00:00:41.535Z,1.70
2018-01-14T00:03:10.136Z,1.70
2018-01-14T00:05:37.775Z,1.60
2018-01-14T00:08:07.218Z,1.70
2018-01-14T00:10:34.788Z,1.60
2018-01-14T00:13:02.324Z,1.60
2018-01-14T00:15:30.046Z,1.70
2018-01-14T00:17:57.636Z,1.70
2018-01-14T00:20:25.276Z,1.70
2018-01-14T00:22:53.674Z,1.60
2018-01-14T00:25:21.252Z,1.60
2018-01-14T00:27:48.866Z,1.60
2018-01-14T00:30:16.470Z,1.60
2018-01-14T00:32:44.030Z,1.60
2018-01-14T00:35:11.638Z,1.60
2018-01-14T00:37:40.050Z,1.60
2018-01-14T00:40:07.602Z,1.60
2018-01-14T00:42:35.140Z,1.60
2018-01-14T00:45:03.970Z,1.60
2018-01-14T00:47:31.598Z,1.60
2018-01-14T00:49:59.317Z,1.60
2018-01-14T00:52:26.920Z,1.60
2018-01-14T00:54:54.564Z,1.60
2018-01-14T00:57:22.150Z,1.70
2018-01-14T00:59:50.468Z,1.70
2018-01-14T01:02:18.054Z,1.60
2018-01-14T01:04:45.670Z,1.70
2018-01-14T01:07:13.245Z,1.60
2018-01-14T01:09:40.814Z,1.70
2018-01-14T01:12:08.362Z,1.70
2018-01-14T01:14:35.896Z,1.70
2018-01-14T01:17:03.464Z,1.70
2018-01-14T01:19:31.008Z,1.70
2018-01-14T01:22:00.438Z,1.70
2018-01-14T01:24:28.413Z,1.60
2018-01-14T01:26:55.956Z,1.70
2018-01-14T01:29:23.494Z,1.70
2018-01-14T01:31:52.200Z,1.70
2018-01-14T01:34:19.934Z,1.70
2018-01-14T01:36:47.512Z,1.70
2018-01-14T01:39:15.094Z,1.60
2018-01-14T01:41:42.646Z,1.70
2018-01-14T01:44:10.167Z,1.70
2018-01-14T01:46:38.931Z,1.70
2018-01-14T01:49:06.507Z,1.70
2018-01-14T01:51:34.066Z,1.70
2018-01-14T01:54:01.631Z,1.70
2018-01-14T01:56:29.150Z,1.70
2018-01-14T01:58:56.679Z,1.70
2018-01-14T02:01:25.476Z,1.70
2018-01-14T02:03:53.034Z,1.70
2018-01-14T02:06:20.590Z,1.70
2018-01-14T02:08:48.138Z,1.70
2018-01-14T02:11:15.725Z,1.70
2018-01-14T02:13:43.502Z,1.70
2018-01-14T02:16:11.072Z,1.70
2018-01-14T02:18:39.418Z,1.70
2018-01-14T02:21:06.978Z,1.60
2018-01-14T02:23:34.536Z,1.60
2018-01-14T02:26:02.104Z,1.60
2018-01-14T02:28:29.675Z,1.60
2018-01-14T02:30:57.264Z,1.60
2018-01-14T02:33:24.823Z,1.60
2018-01-14T02:35:52.337Z,1.60
2018-01-14T02:38:19.873Z,1.60
2018-01-14T02:40:47.508Z,1.60
2018-01-14T02:43:15.864Z,1.60
2018-01-14T02:45:43.446Z,1.60
2018-01-14T02:48:11.002Z,1.60
2018-01-14T02:50:38.532Z,1.60
2018-01-14T02:53:06.066Z,1.60
2018-01-14T02:55:33.628Z,1.60
2018-01-14T02:58:01.184Z,1.60
2018-01-14T03:00:28.776Z,1.60
2018-01-14T03:02:56.402Z,1.60
2018-01-14T03:05:23.974Z,1.50
2018-01-14T03:07:51.583Z,1.50
2018-01-14T03:10:19.120Z,1.50
2018-01-14T03:12:46.678Z,1.50
2018-01-14T03:15:15.038Z,1.50
2018-01-14T03:17:43.767Z,1.50
2018-01-14T03:20:11.294Z,1.40
2018-01-14T03:22:38.854Z,1.50
2018-01-14T03:25:06.425Z,1.50
2018-01-14T03:27:34.029Z,1.40
2018-01-14T03:30:01.543Z,1.40
2018-01-14T03:32:29.102Z,1.40
2018-01-14T03:34:56.654Z,1.40
2018-01-14T03:37:24.193Z,1.40
2018-01-14T03:39:51.743Z,1.40
2018-01-14T03:42:20.031Z,1.40
2018-01-14T03:44:47.579Z,1.40
2018-01-14T03:47:15.107Z,1.40
2018-01-14T03:49:42.642Z,1.40
2018-01-14T03:52:10.187Z,1.40
2018-01-14T03:54:37.890Z,1.40
2018-01-14T03:57:05.437Z,1.40
2018-01-14T03:59:32.988Z,1.40
2018-01-14T04:02:00.557Z,1.40
2018-01-14T04:04:28.122Z,1.40
2018-01-14T04:06:55.672Z,1.40
2018-01-14T04:09:23.225Z,1.40
2018-01-14T04:11:50.770Z,1.40
2018-01-14T04:14:18.345Z,1.40
2018-01-14T04:16:45.908Z,1.40
2018-01-14T04:19:13.428Z,1.40
2018-01-14T04:21:41.023Z,1.40
2018-01-14T04:24:08.593Z,1.40
2018-01-14T04:26:36.165Z,1.40
2018-01-14T04:29:03.697Z,1.40
2018-01-14T04:31:31.261Z,1.40
2018-01-14T04:33:59.629Z,1.40
2018-01-14T04:36:27.164Z,1.40
2018-01-14T04:38:54.686Z,1.40
2018-01-14T04:41:22.203Z,1.40
2018-01-14T04:43:49.771Z,1.40
2018-01-14T04:46:18.097Z,1.40
2018-01-14T04:48:45.660Z,1.40
2018-01-14T04:51:13.986Z,1.40
2018-01-14T04:53:41.496Z,1.30
2018-01-14T04:56:09.788Z,1.30
2018-01-14T04:58:37.360Z,1.30
2018-01-14T05:01:04.914Z,1.30
2018-01-14T05:03:33.595Z,1.30
2018-01-14T05:06:02.361Z,1.30
2018-01-14T05:08:30.920Z,1.30
2018-01-14T05:10:58.452Z,1.20
2018-01-14T05:13:26.012Z,1.30
2018-01-14T05:15:53.596Z,1.30
2018-01-14T05:18:21.121Z,1.20
2018-01-14T05:20:48.672Z,1.20
2018-01-14T05:23:16.233Z,1.20
2018-01-14T05:25:44.548Z,1.10
2018-01-14T05:28:12.111Z,1.10
2018-01-14T05:30:39.631Z,1.10
2018-01-14T05:33:07.165Z,1.20
2018-01-14T05:35:34.704Z,1.10
2018-01-14T05:38:02.228Z,1.10
2018-01-14T05:40:29.781Z,1.10
2018-01-14T05:42:57.374Z,1.10
2018-01-14T05:45:24.940Z,1.10
2018-01-14T05:47:52.461Z,1.10
2018-01-14T05:50:20.024Z,1.10
2018-01-14T05:52:47.933Z,1.10
2018-01-14T05:55:16.241Z,1.10
2018-01-14T05:57:43.788Z,1.00
2018-01-14T06:00:11.382Z,1.10
2018-01-14T06:02:38.934Z,1.00
2018-01-14T06:05:06.482Z,1.10
2018-01-14T06:07:35.255Z,1.10
2018-01-14T06:10:02.825Z,1.10
2018-01-14T06:12:30.365Z,1.10
2018-01-14T06:14:57.917Z,1.10
2018-01-14T06:17:25.723Z,1.00
2018-01-14T06:19:53.248Z,1.10
2018-01-14T06:22:20.790Z,1.10
2018-01-14T06:24:49.131Z,1.10
2018-01-14T06:27:16.681Z,1.00
2018-01-14T06:29:44.250Z,1.00
2018-01-14T06:32:11.851Z,1.00
2018-01-14T06:34:39.397Z,1.00
2018-01-14T06:37:06.934Z,1.00
2018-01-14T06:39:34.540Z,0.90
2018-01-14T06:42:02.831Z,1.00
2018-01-14T06:44:30.363Z,0.90
2018-01-14T06:46:57.900Z,1.00
2018-01-14T06:49:25.467Z,0.90
2018-01-14T06:51:53.037Z,0.90
2018-01-14T06:54:21.751Z,0.90
2018-01-14T06:56:49.309Z,0.90
2018-01-14T06:59:17.620Z,0.90
2018-01-14T07:01:45.956Z,0.90
2018-01-14T07:04:13.863Z,1.00
2018-01-14T07:06:41.742Z,1.00
2018-01-14T07:09:10.378Z,1.00
2018-01-14T07:11:37.927Z,0.90
2018-01-14T07:14:06.276Z,0.90
2018-01-14T07:16:33.793Z,0.90
2018-01-14T07:19:01.324Z,0.90
2018-01-14T07:21:29.626Z,0.90
2018-01-14T07:23:57.162Z,0.90
2018-01-14T07:26:24.778Z,0.90
2018-01-14T07:28:52.321Z,0.90
2018-01-14T07:31:19.924Z,0.90
2018-01-14T07:33:48.355Z,0.90
2018-01-14T07:36:16.764Z,0.90
2018-01-14T07:38:44.294Z,0.90
2018-01-14T07:41:11.860Z,0.90
2018-01-14T07:43:39.406Z,1.00
2018-01-14T07:46:06.944Z,0.90
2018-01-14T07:48:34.509Z,0.90
2018-01-14T07:51:02.090Z,0.90
2018-01-14T07:53:29.657Z,0.90
2018-01-14T07:55:57.320Z,0.90
2018-01-14T07:58:24.848Z,0.90
2018-01-14T08:00:52.476Z,0.90
2018-01-14T08:03:20.090Z,0.90
2018-01-14T08:05:47.629Z,0.90
2018-01-14T08:08:15.209Z,0.90
2018-01-14T08:10:42.831Z,0.90
2018-01-14T08:13:11.279Z,0.90
2018-01-14T08:15:38.881Z,0.90
2018-01-14T08:18:07.240Z,0.90
2018-01-14T08:20:34.807Z,0.80
2018-01-14T08:23:02.385Z,0.90
2018-01-14T08:25:30.768Z,0.90
2018-01-14T08:27:59.118Z,0.90
2018-01-14T08:30:26.726Z,0.90
2018-01-14T08:32:54.296Z,0.90
2018-01-14T08:35:21.886Z,0.90
2018-01-14T08:37:49.458Z,0.90
2018-01-14T08:40:17.066Z,0.90
2018-01-14T08:42:44.649Z,0.90
2018-01-14T08:45:12.188Z,0.90
2018-01-14T08:47:39.810Z,0.90
2018-01-14T08:50:07.367Z,0.90
2018-01-14T08:52:34.936Z,0.90
2018-01-14T08:55:02.580Z,0.90
2018-01-14T08:57:30.142Z,0.90
2018-01-14T08:59:57.692Z,0.80
2018-01-14T09:02:25.242Z,0.90
2018-01-14T09:04:52.769Z,0.90
2018-01-14T09:07:20.355Z,0.90
2018-01-14T09:09:47.943Z,0.90
2018-01-14T09:12:16.274Z,0.90
2018-01-14T09:14:44.622Z,0.80
2018-01-14T09:17:12.225Z,0.80
2018-01-14T09:19:41.040Z,0.80
2018-01-14T09:22:08.590Z,0.80
2018-01-14T09:24:36.137Z,0.80
2018-01-14T09:27:03.696Z,0.90
2018-01-14T09:29:31.236Z,0.80
2018-01-14T09:31:58.858Z,0.80
2018-01-14T09:34:26.397Z,0.90
2018-01-14T09:36:53.962Z,0.90
2018-01-14T09:39:21.547Z,0.90
2018-01-14T09:41:49.864Z,0.90
2018-01-14T09:44:17.435Z,0.80
2018-01-14T09:46:44.973Z,0.80
2018-01-14T09:49:12.519Z,0.80
2018-01-14T09:51:40.132Z,0.80
2018-01-14T09:54:08.373Z,0.80
2018-01-14T09:56:35.963Z,0.80
2018-01-14T09:59:03.507Z,0.80
2018-01-14T10:01:31.068Z,0.80
2018-01-14T10:03:58.682Z,0.80
2018-01-14T10:06:26.269Z,0.70
2018-01-14T10:08:53.846Z,0.80
2018-01-14T10:11:21.392Z,0.80
2018-01-14T10:13:48.962Z,0.70
2018-01-14T10:16:16.532Z,0.80
2018-01-14T10:18:44.124Z,0.80
2018-01-14T10:21:12.499Z,0.70
2018-01-14T10:23:40.054Z,0.70
2018-01-14T10:26:07.668Z,0.70
2018-01-14T10:28:35.191Z,0.80
2018-01-14T10:31:03.490Z,0.80
2018-01-14T10:33:31.051Z,0.80
2018-01-14T10:35:58.576Z,0.80
2018-01-14T10:38:26.952Z,0.90
2018-01-14T10:40:54.539Z,0.80
2018-01-14T10:43:22.853Z,0.80
2018-01-14T10:45:50.477Z,0.80
2018-01-14T10:48:18.845Z,0.90
2018-01-14T10:50:46.424Z,0.80
2018-01-14T10:53:13.970Z,0.80
2018-01-14T10:55:41.568Z,0.80
2018-01-14T10:58:09.130Z,0.80
2018-01-14T11:00:42.217Z,0.80
2018-01-14T11:03:09.739Z,0.80
2018-01-14T11:05:37.288Z,0.80
2018-01-14T11:08:05.567Z,0.80
2018-01-14T11:10:33.853Z,0.80
2018-01-14T11:13:02.127Z,0.90
2018-01-14T11:15:30.418Z,0.90
2018-01-14T11:17:57.926Z,0.80
2018-01-14T11:20:25.423Z,0.80
2018-01-14T11:22:52.932Z,0.80
2018-01-14T11:25:20.461Z,0.80
2018-01-14T11:27:48.731Z,0.80
2018-01-14T11:30:16.260Z,0.80
2018-01-14T11:32:43.757Z,0.80
2018-01-14T11:35:11.287Z,0.90
2018-01-14T11:37:38.828Z,0.90
2018-01-14T11:40:06.339Z,0.90
2018-01-14T11:42:33.876Z,1.00
2018-01-14T11:45:01.422Z,1.00
2018-01-14T11:47:28.953Z,1.10
2018-01-14T11:49:56.513Z,1.00
2018-01-14T11:52:24.164Z,1.00
2018-01-14T11:54:51.800Z,1.00
2018-01-14T11:57:20.170Z,1.00
2018-01-14T11:59:48.089Z,1.10
2018-01-14T12:02:15.882Z,1.10
2018-01-14T12:04:43.448Z,1.10
2018-01-14T12:07:11.108Z,1.10
2018-01-14T12:09:38.673Z,1.10
2018-01-14T12:12:06.257Z,1.10
2018-01-14T12:14:33.802Z,1.10
2018-01-14T12:17:01.432Z,1.10
2018-01-14T12:19:28.975Z,1.10
2018-01-14T12:21:56.540Z,1.20
2018-01-14T12:24:24.086Z,1.20
2018-01-14T12:26:51.614Z,1.10
2018-01-14T12:29:19.157Z,1.20
2018-01-14T12:31:46.685Z,1.10
2018-01-14T12:37:14.145Z,1.20
2018-01-14T12:39:42.737Z,1.20
2018-01-14T12:42:10.272Z,1.20
2018-01-14T12:44:38.531Z,1.20
2018-01-14T12:47:06.282Z,1.20
2018-01-14T12:49:34.041Z,1.20
2018-01-14T12:52:01.830Z,1.10
2018-01-14T12:54:29.587Z,1.20
2018-01-14T12:56:57.350Z,1.10
2018-01-14T12:59:24.901Z,1.20
2018-01-14T13:01:52.413Z,1.10
2018-01-14T13:04:19.985Z,1.10
2018-01-14T13:06:47.495Z,1.10
2018-01-14T13:09:15.007Z,1.10
2018-01-14T13:11:43.286Z,1.10
2018-01-14T13:14:11.555Z,1.10
2018-01-14T13:16:39.834Z,1.10
2018-01-14T13:19:08.128Z,1.10
2018-01-14T13:21:35.627Z,1.00
2018-01-14T13:24:03.165Z,1.10
2018-01-14T13:26:30.699Z,1.10
2018-01-14T13:28:58.260Z,1.10
2018-01-14T13:31:25.801Z,1.10
2018-01-14T13:33:54.126Z,1.10
2018-01-14T13:36:21.676Z,1.00
2018-01-14T13:38:49.235Z,1.10
2018-01-14T13:41:16.872Z,1.00
2018-01-14T13:43:44.374Z,1.00
2018-01-14T13:46:11.890Z,1.00
2018-01-14T13:48:39.399Z,1.00
2018-01-14T13:51:06.929Z,1.00
2018-01-14T13:53:34.453Z,1.00
2018-01-14T13:56:02.742Z,1.00
2018-01-14T13:58:30.247Z,0.90
2018-01-14T14:00:57.783Z,1.00
2018-01-14T14:03:26.095Z,1.00
2018-01-14T14:05:53.635Z,0.90
2018-01-14T14:08:21.179Z,1.00
2018-01-14T14:10:48.685Z,0.90
2018-01-14T14:13:16.241Z,0.90
2018-01-14T14:15:43.758Z,0.90
2018-01-14T14:18:11.275Z,0.90
2018-01-14T14:20:39.555Z,0.90
2018-01-14T14:23:07.857Z,0.90
2018-01-14T14:25:35.359Z,0.90
2018-01-14T14:28:02.861Z,0.90
2018-01-14T14:30:30.397Z,0.90
2018-01-14T14:32:58.683Z,0.90
2018-01-14T14:35:26.195Z,0.80
2018-01-14T14:37:53.780Z,0.80
2018-01-14T14:40:21.295Z,0.80
2018-01-14T14:42:48.840Z,0.80
2018-01-14T14:45:16.374Z,0.80
2018-01-14T14:47:43.877Z,0.80
2018-01-14T14:50:11.379Z,0.90
2018-01-14T14:52:38.934Z,0.90
2018-01-14T14:55:06.451Z,0.90
2018-01-14T14:57:33.968Z,0.90
2018-01-14T15:00:02.284Z,0.90
2018-01-14T15:02:29.822Z,0.80
2018-01-14T15:04:57.358Z,0.90
2018-01-14T15:07:24.932Z,0.80
2018-01-14T15:09:52.475Z,0.90
2018-01-14T15:12:20.007Z,0.80
2018-01-14T15:14:47.532Z,0.80
2018-01-14T15:17:15.039Z,0.80
2018-01-14T15:19:42.548Z,0.80
2018-01-14T15:22:10.079Z,0.80
2018-01-14T15:24:37.603Z,0.80
2018-01-14T15:27:05.114Z,0.80
2018-01-14T15:29:32.643Z,0.90
2018-01-14T15:32:00.180Z,0.90
2018-01-14T15:34:27.691Z,0.90
2018-01-14T15:36:55.227Z,0.90
2018-01-14T15:39:23.561Z,0.90
2018-01-14T15:41:51.071Z,0.80
2018-01-14T15:44:19.351Z,0.90
2018-01-14T15:46:46.865Z,0.80
2018-01-14T15:49:14.393Z,0.90
2018-01-14T15:51:41.933Z,0.80
2018-01-14T15:54:10.239Z,0.80
2018-01-14T15:56:37.753Z,0.80
2018-01-14T15:59:06.130Z,0.80
2018-01-14T16:01:34.417Z,0.80
2018-01-14T16:04:01.967Z,0.80
2018-01-14T16:06:29.510Z,0.90
2018-01-14T16:08:57.150Z,0.90
2018-01-14T16:11:24.723Z,0.90
2018-01-14T16:13:52.289Z,0.90
2018-01-14T16:16:19.831Z,0.90
2018-01-14T16:18:47.385Z,0.90
2018-01-14T16:21:14.945Z,0.80
2018-01-14T16:23:42.477Z,0.80
2018-01-14T16:26:10.008Z,0.80
2018-01-14T16:28:38.329Z,0.80
2018-01-14T16:31:05.846Z,0.80
2018-01-14T16:33:34.130Z,0.80
2018-01-14T16:36:01.719Z,0.80
2018-01-14T16:38:29.251Z,0.80
2018-01-14T16:40:56.812Z,0.80
2018-01-14T16:43:24.493Z,0.80
2018-01-14T16:45:52.825Z,0.90
2018-01-14T16:48:20.353Z,0.80
2018-01-14T16:50:47.891Z,0.90
2018-01-14T16:53:15.433Z,0.90
2018-01-14T16:55:42.961Z,0.90
2018-01-14T16:58:10.475Z,0.90
2018-01-14T17:00:38.000Z,0.90
2018-01-14T17:03:05.599Z,0.90
2018-01-14T17:05:33.181Z,0.90
2018-01-14T17:08:00.702Z,1.00
2018-01-14T17:10:28.207Z,1.00
2018-01-14T17:12:55.735Z,0.90
2018-01-14T17:15:23.273Z,0.90
2018-01-14T17:17:50.832Z,0.90
2018-01-14T17:20:18.383Z,0.80
2018-01-14T17:22:45.947Z,0.80
2018-01-14T17:25:13.461Z,0.80
2018-01-14T17:27:41.007Z,0.90
2018-01-14T17:30:08.549Z,0.80
2018-01-14T17:32:36.085Z,0.90
2018-01-14T17:35:03.649Z,0.90
2018-01-14T17:37:31.165Z,0.80
2018-01-14T17:39:58.683Z,0.80
2018-01-14T17:42:26.205Z,0.80
2018-01-14T17:44:53.718Z,0.80
2018-01-14T17:47:21.235Z,0.80
2018-01-14T17:49:48.779Z,0.80
2018-01-14T17:52:16.315Z,0.80
2018-01-14T17:54:43.833Z,0.80
2018-01-14T17:57:11.367Z,0.80
2018-01-14T17:59:38.886Z,0.80
2018-01-14T18:02:06.391Z,0.70
2018-01-14T18:04:33.935Z,0.70
2018-01-14T18:07:02.207Z,0.70
2018-01-14T18:09:29.715Z,0.60
2018-01-14T18:11:57.281Z,0.60
2018-01-14T18:14:24.801Z,0.60
2018-01-14T18:17:03.080Z,0.60
2018-01-14T18:19:30.595Z,0.60
2018-01-14T18:21:58.140Z,0.70
2018-01-14T18:24:25.673Z,0.60
2018-01-14T18:26:53.220Z,0.60
2018-01-14T18:29:20.725Z,0.60
2018-01-14T18:31:48.753Z,0.60
2018-01-14T18:34:16.263Z,0.50
2018-01-14T18:36:43.778Z,0.50
2018-01-14T18:39:11.318Z,0.50
2018-01-14T18:41:38.842Z,0.50
2018-01-14T18:44:06.375Z,0.50
2018-01-14T18:46:33.923Z,0.50
2018-01-14T18:49:01.444Z,0.50
2018-01-14T18:51:28.961Z,0.50
2018-01-14T18:53:56.693Z,0.50
2018-01-14T18:56:24.987Z,0.50
2018-01-14T18:58:52.517Z,0.40
2018-01-14T19:01:20.074Z,0.50
2018-01-14T19:03:47.591Z,0.50
2018-01-14T19:06:15.105Z,0.50
2018-01-14T19:08:43.389Z,0.40
2018-01-14T19:11:10.920Z,0.30
2018-01-14T19:13:38.446Z,0.40
2018-01-14T19:16:05.980Z,0.40
2018-01-14T19:18:33.493Z,0.30
2018-01-14T19:21:01.006Z,0.30
2018-01-14T19:23:28.538Z,0.30
2018-01-14T19:25:56.079Z,0.30
2018-01-14T19:28:23.602Z,0.30
2018-01-14T19:30:51.134Z,0.30
2018-01-14T19:33:18.653Z,0.30
2018-01-14T19:35:46.196Z,0.20
2018-01-14T19:38:13.719Z,0.20
2018-01-14T19:40:41.233Z,0.20
2018-01-14T19:43:08.771Z,0.20
2018-01-14T19:45:36.329Z,0.20
2018-01-14T19:48:03.876Z,0.20
2018-01-14T19:50:31.391Z,0.10
2018-01-14T19:52:58.964Z,0.20
2018-01-14T19:55:26.493Z,0.20
2018-01-14T19:57:54.019Z,0.10
2018-01-14T20:00:21.543Z,0.10
2018-01-14T20:02:49.051Z,0.10
2018-01-14T20:05:16.557Z,0.00
2018-01-14T20:07:44.082Z,0.00
2018-01-14T20:10:11.588Z,0.00
2018-01-14T20:12:39.102Z,0.00
2018-01-14T20:15:06.648Z,-0.10
2018-01-14T20:17:34.284Z,-0.10
2018-01-14T20:20:01.809Z,-0.10
2018-01-14T20:22:29.378Z,-0.10
2018-01-14T20:24:56.949Z,-0.10
2018-01-14T20:27:24.505Z,-0.10
2018-01-14T20:29:52.842Z,0.00
2018-01-14T20:32:21.153Z,-0.10
2018-01-14T20:34:48.676Z,-0.10
2018-01-14T20:37:16.215Z,-0.10
2018-01-14T20:39:43.749Z,-0.10
2018-01-14T20:42:11.304Z,-0.10
2018-01-14T20:44:44.530Z,-0.10
2018-01-14T20:47:12.045Z,-0.10
2018-01-14T20:49:39.575Z,-0.10
2018-01-14T20:52:07.120Z,-0.10
2018-01-14T20:54:35.406Z,-0.10
2018-01-14T20:57:03.698Z,-0.10
2018-01-14T20:59:31.242Z,-0.10
2018-01-14T21:01:59.557Z,-0.10
2018-01-14T21:04:27.082Z,-0.20
2018-01-14T21:06:55.368Z,-0.10
2018-01-14T21:09:22.914Z,-0.20
2018-01-14T21:11:50.442Z,-0.20
2018-01-14T21:14:18.011Z,-0.10
2018-01-14T21:16:45.530Z,-0.10
2018-01-14T21:19:13.058Z,-0.10
2018-01-14T21:21:40.597Z,-0.10
2018-01-14T21:24:08.126Z,-0.10
2018-01-14T21:26:35.654Z,-0.10
2018-01-14T21:29:03.210Z,-0.10
2018-01-14T21:31:30.742Z,-0.10
2018-01-14T21:33:58.309Z,-0.10
2018-01-14T21:36:25.863Z,-0.10
2018-01-14T21:38:54.153Z,-0.10
2018-01-14T21:41:21.723Z,-0.10
2018-01-14T21:43:50.031Z,-0.10
2018-01-14T21:46:17.563Z,-0.10
2018-01-14T21:48:45.080Z,-0.10
2018-01-14T21:51:12.621Z,-0.10
2018-01-14T21:53:40.140Z,-0.10
2018-01-14T21:56:08.453Z,-0.10
2018-01-14T21:58:35.980Z,-0.20
2018-01-14T22:01:03.497Z,-0.10
2018-01-14T22:03:31.793Z,-0.10
2018-01-14T22:05:59.340Z,-0.20
2018-01-14T22:08:26.852Z,-0.10
2018-01-14T22:10:54.426Z,0.00
2018-01-14T22:13:21.934Z,-0.10
2018-01-14T22:15:49.456Z,-0.10
2018-01-14T22:18:17.381Z,-0.10
2018-01-14T22:20:44.910Z,-0.10
2018-01-14T22:23:12.436Z,-0.10
2018-01-14T22:25:39.960Z,-0.10
2018-01-14T22:28:07.480Z,0.00
2018-01-14T22:30:34.984Z,0.00
2018-01-14T22:33:02.495Z,0.00
2018-01-14T22:35:30.792Z,-0.10
2018-01-14T22:37:58.316Z,-0.10
2018-01-14T22:40:25.828Z,0.00
2018-01-14T22:42:53.346Z,0.00
2018-01-14T22:45:21.636Z,-0.10
2018-01-14T22:47:49.160Z,-0.10
2018-01-14T22:50:16.672Z,-0.10
2018-01-14T22:52:44.176Z,-0.10
2018-01-14T22:55:11.698Z,-0.10
2018-01-14T22:57:39.216Z,-0.10
2018-01-14T23:00:06.740Z,-0.10
2018-01-14T23:02:34.276Z,0.00
2018-01-14T23:05:01.772Z,-0.10
2018-01-14T23:07:29.291Z,-0.10
2018-01-14T23:09:56.829Z,-0.10
2018-01-14T23:12:24.330Z,-0.10
2018-01-14T23:14:57.396Z,-0.10
2018-01-14T23:17:24.936Z,-0.10
2018-01-14T23:19:52.446Z,-0.10
2018-01-14T23:22:19.956Z,-0.10
2018-01-14T23:24:47.492Z,-0.20
2018-01-14T23:27:15.788Z,-0.20
2018-01-14T23:29:43.312Z,-0.20
2018-01-14T23:32:10.832Z,-0.20
2018-01-14T23:34:38.348Z,-0.30
2018-01-14T23:37:05.915Z,-0.30
2018-01-14T23:39:33.404Z,-0.30
2018-01-14T23:42:00.913Z,-0.30
2018-01-14T23:44:28.416Z,-0.20
2018-01-14T23:46:55.942Z,-0.30
2018-01-14T23:49:23.584Z,-0.30
2018-01-14T23:51:51.101Z,-0.30
2018-01-14T23:54:18.616Z,-0.30
2018-01-14T23:56:46.878Z,-0.30
2018-01-14T23:59:14.400Z,-0.40
